sensor_id;sensor_type;location;lat;lon;timestamp;temperature;humidity
16347;DHT22;8283;48.504;13.734;2022-12-05T00:00:58;9.00;59.60
16347;DHT22;8283;48.504;13.734;2022-12-05T00:03:47;9.00;59.70
16347;DHT22;8283;48.504;13.734;2022-12-05T00:06:34;9.00;59.80
16347;DHT22;8283;48.504;13.734;2022-12-05T00:09:18;9.00;59.80
16347;DHT22;8283;48.504;13.734;2022-12-05T00:12:03;8.90;59.80
16347;DHT22;8283;48.504;13.734;2022-12-05T00:14:47;8.90;59.90
16347;DHT22;8283;48.504;13.734;2022-12-05T00:17:31;9.00;60.00
16347;DHT22;8283;48.504;13.734;2022-12-05T00:20:16;9.00;60.70
16347;DHT22;8283;48.504;13.734;2022-12-05T00:23:00;9.00;60.10
16347;DHT22;8283;48.504;13.734;2022-12-05T00:25:45;9.00;60.20
16347;DHT22;8283;48.504;13.734;2022-12-05T00:28:31;9.00;60.40
16347;DHT22;8283;48.504;13.734;2022-12-05T00:31:22;9.00;60.50
16347;DHT22;8283;48.504;13.734;2022-12-05T00:34:07;9.00;62.00
16347;DHT22;8283;48.504;13.734;2022-12-05T00:36:51;9.10;61.30
16347;DHT22;8283;48.504;13.734;2022-12-05T00:39:35;9.10;61.00
16347;DHT22;8283;48.504;13.734;2022-12-05T00:42:20;9.10;60.90
16347;DHT22;8283;48.504;13.734;2022-12-05T00:45:05;9.10;60.90
16347;DHT22;8283;48.504;13.734;2022-12-05T00:47:49;9.20;61.00
16347;DHT22;8283;48.504;13.734;2022-12-05T00:50:34;9.20;61.00
16347;DHT22;8283;48.504;13.734;2022-12-05T00:53:18;9.20;61.00
16347;DHT22;8283;48.504;13.734;2022-12-05T00:56:05;9.30;61.20
16347;DHT22;8283;48.504;13.734;2022-12-05T00:58:52;9.30;61.30
16347;DHT22;8283;48.504;13.734;2022-12-05T01:01:39;9.30;61.20
16347;DHT22;8283;48.504;13.734;2022-12-05T01:04:24;9.40;61.50
16347;DHT22;8283;48.504;13.734;2022-12-05T01:07:09;9.40;61.50
16347;DHT22;8283;48.504;13.734;2022-12-05T01:09:53;9.40;61.90
16347;DHT22;8283;48.504;13.734;2022-12-05T01:12:38;9.50;62.40
16347;DHT22;8283;48.504;13.734;2022-12-05T01:15:22;9.50;62.30
16347;DHT22;8283;48.504;13.734;2022-12-05T01:18:06;9.50;62.40
16347;DHT22;8283;48.504;13.734;2022-12-05T01:20:51;9.60;62.60
16347;DHT22;8283;48.504;13.734;2022-12-05T01:23:36;9.60;62.20
16347;DHT22;8283;48.504;13.734;2022-12-05T01:26:21;9.60;62.20
16347;DHT22;8283;48.504;13.734;2022-12-05T01:29:06;9.70;62.30
16347;DHT22;8283;48.504;13.734;2022-12-05T01:31:51;9.70;62.10
16347;DHT22;8283;48.504;13.734;2022-12-05T01:34:35;9.80;62.30
16347;DHT22;8283;48.504;13.734;2022-12-05T01:37:20;9.80;62.60
16347;DHT22;8283;48.504;13.734;2022-12-05T01:40:05;9.80;62.40
16347;DHT22;8283;48.504;13.734;2022-12-05T01:42:49;9.90;62.60
16347;DHT22;8283;48.504;13.734;2022-12-05T01:45:37;9.90;62.40
16347;DHT22;8283;48.504;13.734;2022-12-05T01:48:32;9.90;62.50
16347;DHT22;8283;48.504;13.734;2022-12-05T01:51:18;9.90;62.90
16347;DHT22;8283;48.504;13.734;2022-12-05T01:54:05;9.90;62.10
16347;DHT22;8283;48.504;13.734;2022-12-05T01:56:53;10.00;62.60
16347;DHT22;8283;48.504;13.734;2022-12-05T01:59:49;10.00;62.30
16347;DHT22;8283;48.504;13.734;2022-12-05T02:02:33;10.00;62.70
16347;DHT22;8283;48.504;13.734;2022-12-05T02:05:22;10.00;62.30
16347;DHT22;8283;48.504;13.734;2022-12-05T02:08:10;10.00;62.50
16347;DHT22;8283;48.504;13.734;2022-12-05T02:10:56;10.10;62.80
16347;DHT22;8283;48.504;13.734;2022-12-05T02:24:18;10.10;63.20
16347;DHT22;8283;48.504;13.734;2022-12-05T02:30:03;10.10;62.60
16347;DHT22;8283;48.504;13.734;2022-12-05T02:33:16;10.10;63.50
16347;DHT22;8283;48.504;13.734;2022-12-05T02:36:22;10.20;62.50
16347;DHT22;8283;48.504;13.734;2022-12-05T02:42:30;10.20;62.40
16347;DHT22;8283;48.504;13.734;2022-12-05T02:45:17;10.20;62.70
16347;DHT22;8283;48.504;13.734;2022-12-05T02:48:04;10.20;61.70
16347;DHT22;8283;48.504;13.734;2022-12-05T02:50:51;10.20;61.80
16347;DHT22;8283;48.504;13.734;2022-12-05T02:53:37;10.20;61.80
16347;DHT22;8283;48.504;13.734;2022-12-05T02:56:23;10.20;61.70
16347;DHT22;8283;48.504;13.734;2022-12-05T02:59:08;10.30;61.80
16347;DHT22;8283;48.504;13.734;2022-12-05T03:01:53;10.30;61.70
16347;DHT22;8283;48.504;13.734;2022-12-05T03:04:37;10.30;61.70
16347;DHT22;8283;48.504;13.734;2022-12-05T03:07:22;10.30;61.80
16347;DHT22;8283;48.504;13.734;2022-12-05T03:10:10;10.30;61.70
16347;DHT22;8283;48.504;13.734;2022-12-05T03:12:59;10.30;62.60
16347;DHT22;8283;48.504;13.734;2022-12-05T03:15:52;10.30;61.90
16347;DHT22;8283;48.504;13.734;2022-12-05T03:18:49;10.30;62.30
16347;DHT22;8283;48.504;13.734;2022-12-05T03:21:39;10.30;61.90
16347;DHT22;8283;48.504;13.734;2022-12-05T03:24:27;10.30;61.90
16347;DHT22;8283;48.504;13.734;2022-12-05T03:27:25;10.30;61.70
16347;DHT22;8283;48.504;13.734;2022-12-05T03:30:13;10.30;61.70
16347;DHT22;8283;48.504;13.734;2022-12-05T03:33:06;10.30;62.30
16347;DHT22;8283;48.504;13.734;2022-12-05T03:38:55;10.30;62.20
16347;DHT22;8283;48.504;13.734;2022-12-05T03:42:09;10.30;61.80
16347;DHT22;8283;48.504;13.734;2022-12-05T03:45:02;10.40;62.20
16347;DHT22;8283;48.504;13.734;2022-12-05T03:47:56;10.40;62.40
16347;DHT22;8283;48.504;13.734;2022-12-05T03:50:46;10.40;62.10
16347;DHT22;8283;48.504;13.734;2022-12-05T03:53:46;10.40;62.00
16347;DHT22;8283;48.504;13.734;2022-12-05T03:56:45;10.40;62.00
16347;DHT22;8283;48.504;13.734;2022-12-05T03:59:38;10.40;62.70
16347;DHT22;8283;48.504;13.734;2022-12-05T04:02:31;10.40;62.20
16347;DHT22;8283;48.504;13.734;2022-12-05T04:05:18;10.40;62.10
16347;DHT22;8283;48.504;13.734;2022-12-05T04:08:07;10.40;62.40
16347;DHT22;8283;48.504;13.734;2022-12-05T04:10:57;10.40;63.00
16347;DHT22;8283;48.504;13.734;2022-12-05T04:13:54;10.40;62.40
16347;DHT22;8283;48.504;13.734;2022-12-05T04:16:46;10.30;63.50
16347;DHT22;8283;48.504;13.734;2022-12-05T04:22:54;10.30;62.30
16347;DHT22;8283;48.504;13.734;2022-12-05T04:26:17;10.20;62.20
16347;DHT22;8283;48.504;13.734;2022-12-05T04:29:27;10.20;63.40
16347;DHT22;8283;48.504;13.734;2022-12-05T04:32:13;10.30;62.50
16347;DHT22;8283;48.504;13.734;2022-12-05T04:35:02;10.30;62.30
16347;DHT22;8283;48.504;13.734;2022-12-05T04:37:53;10.30;62.40
16347;DHT22;8283;48.504;13.734;2022-12-05T04:40:56;10.30;62.60
16347;DHT22;8283;48.504;13.734;2022-12-05T04:43:44;10.30;63.20
16347;DHT22;8283;48.504;13.734;2022-12-05T04:46:30;10.40;62.80
16347;DHT22;8283;48.504;13.734;2022-12-05T04:49:23;10.40;62.50
16347;DHT22;8283;48.504;13.734;2022-12-05T04:52:10;10.40;62.80
16347;DHT22;8283;48.504;13.734;2022-12-05T04:55:08;10.40;62.50
16347;DHT22;8283;48.504;13.734;2022-12-05T04:58:04;10.40;62.90
16347;DHT22;8283;48.504;13.734;2022-12-05T05:01:11;10.40;62.70
16347;DHT22;8283;48.504;13.734;2022-12-05T05:04:08;10.40;63.40
16347;DHT22;8283;48.504;13.734;2022-12-05T05:06:55;10.50;62.50
16347;DHT22;8283;48.504;13.734;2022-12-05T05:09:39;10.50;62.40
16347;DHT22;8283;48.504;13.734;2022-12-05T05:12:24;10.50;62.50
16347;DHT22;8283;48.504;13.734;2022-12-05T05:15:08;10.50;62.40
16347;DHT22;8283;48.504;13.734;2022-12-05T05:17:53;10.50;62.50
16347;DHT22;8283;48.504;13.734;2022-12-05T05:20:37;10.50;62.70
16347;DHT22;8283;48.504;13.734;2022-12-05T05:23:22;10.50;62.50
16347;DHT22;8283;48.504;13.734;2022-12-05T05:26:06;10.50;62.50
16347;DHT22;8283;48.504;13.734;2022-12-05T05:28:51;10.50;62.40
16347;DHT22;8283;48.504;13.734;2022-12-05T05:31:36;10.50;62.40
16347;DHT22;8283;48.504;13.734;2022-12-05T05:34:21;10.50;62.50
16347;DHT22;8283;48.504;13.734;2022-12-05T05:37:06;10.50;62.60
16347;DHT22;8283;48.504;13.734;2022-12-05T05:39:50;10.50;62.50
16347;DHT22;8283;48.504;13.734;2022-12-05T05:42:34;10.50;62.50
16347;DHT22;8283;48.504;13.734;2022-12-05T05:45:21;10.50;62.50
16347;DHT22;8283;48.504;13.734;2022-12-05T05:48:05;10.50;62.60
16347;DHT22;8283;48.504;13.734;2022-12-05T05:50:49;10.50;62.40
16347;DHT22;8283;48.504;13.734;2022-12-05T05:53:34;10.50;62.50
16347;DHT22;8283;48.504;13.734;2022-12-05T05:56:22;10.50;62.50
16347;DHT22;8283;48.504;13.734;2022-12-05T05:59:08;10.60;62.70
16347;DHT22;8283;48.504;13.734;2022-12-05T06:01:52;10.60;62.60
16347;DHT22;8283;48.504;13.734;2022-12-05T06:04:36;10.60;62.60
16347;DHT22;8283;48.504;13.734;2022-12-05T06:07:21;10.60;62.60
16347;DHT22;8283;48.504;13.734;2022-12-05T06:10:06;10.60;62.70
16347;DHT22;8283;48.504;13.734;2022-12-05T06:12:51;10.50;63.20
16347;DHT22;8283;48.504;13.734;2022-12-05T06:15:36;10.50;63.80
16347;DHT22;8283;48.504;13.734;2022-12-05T06:18:20;10.50;64.60
16347;DHT22;8283;48.504;13.734;2022-12-05T06:21:05;10.40;64.70
16347;DHT22;8283;48.504;13.734;2022-12-05T06:23:53;10.30;64.50
16347;DHT22;8283;48.504;13.734;2022-12-05T06:26:37;10.30;64.10
16347;DHT22;8283;48.504;13.734;2022-12-05T06:29:22;10.20;63.90
16347;DHT22;8283;48.504;13.734;2022-12-05T06:32:06;10.20;64.40
16347;DHT22;8283;48.504;13.734;2022-12-05T06:34:51;10.20;64.30
16347;DHT22;8283;48.504;13.734;2022-12-05T06:37:36;10.20;64.20
16347;DHT22;8283;48.504;13.734;2022-12-05T06:40:21;10.20;63.80
16347;DHT22;8283;48.504;13.734;2022-12-05T10:37:22;5.10;84.90
16347;DHT22;8283;48.504;13.734;2022-12-05T10:40:11;5.10;81.30
16347;DHT22;8283;48.504;13.734;2022-12-05T10:42:57;5.50;80.70
16347;DHT22;8283;48.504;13.734;2022-12-05T10:45:44;6.10;78.60
16347;DHT22;8283;48.504;13.734;2022-12-05T10:48:29;6.70;77.30
16347;DHT22;8283;48.504;13.734;2022-12-05T10:51:22;7.20;75.90
16347;DHT22;8283;48.504;13.734;2022-12-05T10:54:19;7.60;75.40
16347;DHT22;8283;48.504;13.734;2022-12-05T10:57:23;8.10;74.40
16347;DHT22;8283;48.504;13.734;2022-12-05T11:00:13;8.40;73.90
16347;DHT22;8283;48.504;13.734;2022-12-05T11:03:02;8.70;72.30
16347;DHT22;8283;48.504;13.734;2022-12-05T11:06:01;9.00;71.70
16347;DHT22;8283;48.504;13.734;2022-12-05T11:08:51;9.20;71.00
16347;DHT22;8283;48.504;13.734;2022-12-05T11:11:36;9.30;70.30
16347;DHT22;8283;48.504;13.734;2022-12-05T11:14:24;9.40;69.50
16347;DHT22;8283;48.504;13.734;2022-12-05T11:17:39;9.50;69.20
16347;DHT22;8283;48.504;13.734;2022-12-05T11:23:21;9.70;68.20
16347;DHT22;8283;48.504;13.734;2022-12-05T11:26:19;9.70;68.50
16347;DHT22;8283;48.504;13.734;2022-12-05T11:29:33;9.80;68.20
16347;DHT22;8283;48.504;13.734;2022-12-05T11:32:20;9.80;68.10
16347;DHT22;8283;48.504;13.734;2022-12-05T11:38:03;9.80;67.30
16347;DHT22;8283;48.504;13.734;2022-12-05T11:41:08;9.90;67.20
16347;DHT22;8283;48.504;13.734;2022-12-05T11:44:11;9.90;67.60
16347;DHT22;8283;48.504;13.734;2022-12-05T11:56:20;9.90;67.10
16347;DHT22;8283;48.504;13.734;2022-12-05T12:11:22;10.20;66.80
16347;DHT22;8283;48.504;13.734;2022-12-05T12:17:37;10.30;66.80
16347;DHT22;8283;48.504;13.734;2022-12-05T12:20:43;10.40;66.80
16347;DHT22;8283;48.504;13.734;2022-12-05T12:36:27;10.50;66.50
16347;DHT22;8283;48.504;13.734;2022-12-05T12:39:43;10.60;66.40
16347;DHT22;8283;48.504;13.734;2022-12-05T12:51:42;10.60;65.70
16347;DHT22;8283;48.504;13.734;2022-12-05T12:58:09;10.60;65.60
16347;DHT22;8283;48.504;13.734;2022-12-05T13:01:07;10.60;65.50
16347;DHT22;8283;48.504;13.734;2022-12-05T13:04:01;10.60;66.20
16347;DHT22;8283;48.504;13.734;2022-12-05T13:06:52;10.60;65.40
16347;DHT22;8283;48.504;13.734;2022-12-05T13:10:00;10.50;65.10
16347;DHT22;8283;48.504;13.734;2022-12-05T13:12:45;10.50;65.50
16347;DHT22;8283;48.504;13.734;2022-12-05T13:15:46;10.50;64.90
16347;DHT22;8283;48.504;13.734;2022-12-05T13:18:33;10.50;65.30
16347;DHT22;8283;48.504;13.734;2022-12-05T13:21:19;10.50;64.90
16347;DHT22;8283;48.504;13.734;2022-12-05T13:24:04;10.50;64.80
16347;DHT22;8283;48.504;13.734;2022-12-05T13:26:49;10.50;64.80
16347;DHT22;8283;48.504;13.734;2022-12-05T13:29:39;10.50;65.10
16347;DHT22;8283;48.504;13.734;2022-12-05T13:32:36;10.50;65.30
16347;DHT22;8283;48.504;13.734;2022-12-05T13:35:36;10.50;65.70
16347;DHT22;8283;48.504;13.734;2022-12-05T13:38:41;10.40;66.10
16347;DHT22;8283;48.504;13.734;2022-12-05T13:41:55;10.40;65.30
16347;DHT22;8283;48.504;13.734;2022-12-05T13:50:51;10.30;65.70
16347;DHT22;8283;48.504;13.734;2022-12-05T13:53:45;10.30;65.70
16347;DHT22;8283;48.504;13.734;2022-12-05T13:56:53;10.30;65.70
16347;DHT22;8283;48.504;13.734;2022-12-05T14:03:01;10.30;65.40
16347;DHT22;8283;48.504;13.734;2022-12-05T14:05:50;10.40;65.10
16347;DHT22;8283;48.504;13.734;2022-12-05T14:11:22;10.40;64.60
16347;DHT22;8283;48.504;13.734;2022-12-05T14:14:07;10.40;64.50
16347;DHT22;8283;48.504;13.734;2022-12-05T14:16:53;10.30;64.40
16347;DHT22;8283;48.504;13.734;2022-12-05T14:32:38;10.30;64.80
16347;DHT22;8283;48.504;13.734;2022-12-05T14:35:39;10.30;64.50
16347;DHT22;8283;48.504;13.734;2022-12-05T14:38:29;10.30;64.70
16347;DHT22;8283;48.504;13.734;2022-12-05T14:41:21;10.30;65.20
16347;DHT22;8283;48.504;13.734;2022-12-05T14:44:17;10.30;64.30
16347;DHT22;8283;48.504;13.734;2022-12-05T14:47:03;10.30;64.70
16347;DHT22;8283;48.504;13.734;2022-12-05T14:59:22;10.20;64.70
16347;DHT22;8283;48.504;13.734;2022-12-05T15:02:10;10.30;65.20
16347;DHT22;8283;48.504;13.734;2022-12-05T15:05:02;10.30;65.20
16347;DHT22;8283;48.504;13.734;2022-12-05T15:07:49;10.30;64.50
16347;DHT22;8283;48.504;13.734;2022-12-05T15:10:37;10.30;64.60
16347;DHT22;8283;48.504;13.734;2022-12-05T15:13:25;10.30;64.60
16347;DHT22;8283;48.504;13.734;2022-12-05T15:16:14;10.40;64.70
16347;DHT22;8283;48.504;13.734;2022-12-05T15:19:05;10.40;64.60
16347;DHT22;8283;48.504;13.734;2022-12-05T15:21:53;10.40;64.70
16347;DHT22;8283;48.504;13.734;2022-12-05T15:24:40;10.40;64.50
16347;DHT22;8283;48.504;13.734;2022-12-05T15:27:24;10.40;64.40
16347;DHT22;8283;48.504;13.734;2022-12-05T15:30:15;10.40;64.40
16347;DHT22;8283;48.504;13.734;2022-12-05T15:33:00;10.40;64.70
16347;DHT22;8283;48.504;13.734;2022-12-05T15:35:47;10.40;65.00
16347;DHT22;8283;48.504;13.734;2022-12-05T15:38:33;10.40;64.60
16347;DHT22;8283;48.504;13.734;2022-12-05T15:41:18;10.40;64.20
16347;DHT22;8283;48.504;13.734;2022-12-05T15:44:04;10.40;64.20
16347;DHT22;8283;48.504;13.734;2022-12-05T15:46:55;10.30;64.20
16347;DHT22;8283;48.504;13.734;2022-12-05T15:49:39;10.30;64.30
16347;DHT22;8283;48.504;13.734;2022-12-05T15:52:29;10.30;64.10
16347;DHT22;8283;48.504;13.734;2022-12-05T16:01:22;10.30;64.50
16347;DHT22;8283;48.504;13.734;2022-12-05T16:04:35;10.30;64.20
16347;DHT22;8283;48.504;13.734;2022-12-05T16:07:22;10.20;64.60
16347;DHT22;8283;48.504;13.734;2022-12-05T16:10:11;10.20;64.20
16347;DHT22;8283;48.504;13.734;2022-12-05T16:13:02;10.20;64.50
16347;DHT22;8283;48.504;13.734;2022-12-05T16:15:49;10.20;64.50
16347;DHT22;8283;48.504;13.734;2022-12-05T16:18:36;10.20;64.40
16347;DHT22;8283;48.504;13.734;2022-12-05T16:21:37;10.20;64.40
16347;DHT22;8283;48.504;13.734;2022-12-05T16:24:30;10.10;64.90
16347;DHT22;8283;48.504;13.734;2022-12-05T16:27:28;10.10;64.70
16347;DHT22;8283;48.504;13.734;2022-12-05T16:30:22;10.10;64.90
16347;DHT22;8283;48.504;13.734;2022-12-05T16:33:13;10.10;64.70
16347;DHT22;8283;48.504;13.734;2022-12-05T16:36:11;10.10;64.80
16347;DHT22;8283;48.504;13.734;2022-12-05T16:39:01;10.10;65.10
16347;DHT22;8283;48.504;13.734;2022-12-05T16:41:47;10.10;64.80
16347;DHT22;8283;48.504;13.734;2022-12-05T16:44:57;10.10;64.80
16347;DHT22;8283;48.504;13.734;2022-12-05T16:47:57;10.10;65.40
16347;DHT22;8283;48.504;13.734;2022-12-05T16:50:42;10.10;64.90
16347;DHT22;8283;48.504;13.734;2022-12-05T16:53:29;10.10;64.70
16347;DHT22;8283;48.504;13.734;2022-12-05T16:56:23;10.10;64.80
16347;DHT22;8283;48.504;13.734;2022-12-05T16:59:13;10.10;64.80
16347;DHT22;8283;48.504;13.734;2022-12-05T17:02:03;10.10;64.80
16347;DHT22;8283;48.504;13.734;2022-12-05T17:04:47;10.20;65.00
16347;DHT22;8283;48.504;13.734;2022-12-05T17:07:32;10.10;64.80
16347;DHT22;8283;48.504;13.734;2022-12-05T17:10:17;10.10;64.80
16347;DHT22;8283;48.504;13.734;2022-12-05T17:13:02;10.10;64.80
16347;DHT22;8283;48.504;13.734;2022-12-05T17:15:47;10.10;64.90
16347;DHT22;8283;48.504;13.734;2022-12-05T17:18:31;10.20;65.00
16347;DHT22;8283;48.504;13.734;2022-12-05T17:21:18;10.20;65.00
16347;DHT22;8283;48.504;13.734;2022-12-05T17:24:04;10.20;65.10
16347;DHT22;8283;48.504;13.734;2022-12-05T17:26:50;10.20;65.00
16347;DHT22;8283;48.504;13.734;2022-12-05T17:29:35;10.20;65.10
16347;DHT22;8283;48.504;13.734;2022-12-05T17:32:19;10.20;65.10
16347;DHT22;8283;48.504;13.734;2022-12-05T17:35:12;10.20;64.90
16347;DHT22;8283;48.504;13.734;2022-12-05T17:37:58;10.20;65.30
16347;DHT22;8283;48.504;13.734;2022-12-05T17:40:42;10.20;65.00
16347;DHT22;8283;48.504;13.734;2022-12-05T17:43:28;10.20;64.90
16347;DHT22;8283;48.504;13.734;2022-12-05T17:46:16;10.20;64.90
16347;DHT22;8283;48.504;13.734;2022-12-05T17:49:01;10.20;65.10
16347;DHT22;8283;48.504;13.734;2022-12-05T17:51:46;10.20;64.90
16347;DHT22;8283;48.504;13.734;2022-12-05T17:54:31;10.30;65.00
16347;DHT22;8283;48.504;13.734;2022-12-05T17:57:15;10.20;65.00
16347;DHT22;8283;48.504;13.734;2022-12-05T17:59:59;10.30;65.00
16347;DHT22;8283;48.504;13.734;2022-12-05T18:02:45;10.30;65.20
16347;DHT22;8283;48.504;13.734;2022-12-05T18:05:29;10.20;65.00
16347;DHT22;8283;48.504;13.734;2022-12-05T18:08:14;10.20;65.00
16347;DHT22;8283;48.504;13.734;2022-12-05T18:10:59;10.20;65.00
16347;DHT22;8283;48.504;13.734;2022-12-05T18:13:44;10.20;65.00
16347;DHT22;8283;48.504;13.734;2022-12-05T18:16:28;10.30;65.20
16347;DHT22;8283;48.504;13.734;2022-12-05T18:19:13;10.20;65.10
16347;DHT22;8283;48.504;13.734;2022-12-05T18:21:57;10.20;65.30
16347;DHT22;8283;48.504;13.734;2022-12-05T18:24:42;10.20;65.20
16347;DHT22;8283;48.504;13.734;2022-12-05T18:27:26;10.20;65.30
16347;DHT22;8283;48.504;13.734;2022-12-05T18:30:11;10.20;65.80
16347;DHT22;8283;48.504;13.734;2022-12-05T18:32:55;10.10;65.70
16347;DHT22;8283;48.504;13.734;2022-12-05T18:35:40;10.10;65.50
16347;DHT22;8283;48.504;13.734;2022-12-05T18:38:25;10.10;65.50
16347;DHT22;8283;48.504;13.734;2022-12-05T18:41:09;10.10;65.60
16347;DHT22;8283;48.504;13.734;2022-12-05T18:43:54;10.10;65.60
16347;DHT22;8283;48.504;13.734;2022-12-05T18:46:38;10.10;65.60
16347;DHT22;8283;48.504;13.734;2022-12-05T18:49:23;10.10;65.60
16347;DHT22;8283;48.504;13.734;2022-12-05T18:52:08;10.10;65.60
16347;DHT22;8283;48.504;13.734;2022-12-05T18:54:52;10.10;65.60
16347;DHT22;8283;48.504;13.734;2022-12-05T18:57:36;10.10;65.70
16347;DHT22;8283;48.504;13.734;2022-12-05T19:00:21;10.10;65.80
16347;DHT22;8283;48.504;13.734;2022-12-05T19:03:05;10.10;65.60
16347;DHT22;8283;48.504;13.734;2022-12-05T19:05:50;10.10;65.60
16347;DHT22;8283;48.504;13.734;2022-12-05T19:08:34;10.10;66.40
16347;DHT22;8283;48.504;13.734;2022-12-05T19:11:19;10.10;65.70
16347;DHT22;8283;48.504;13.734;2022-12-05T19:14:06;10.10;65.90
16347;DHT22;8283;48.504;13.734;2022-12-05T19:16:52;10.10;66.00
16347;DHT22;8283;48.504;13.734;2022-12-05T19:19:37;10.10;66.00
16347;DHT22;8283;48.504;13.734;2022-12-05T19:22:22;10.10;66.00
16347;DHT22;8283;48.504;13.734;2022-12-05T19:25:07;10.10;65.80
16347;DHT22;8283;48.504;13.734;2022-12-05T19:27:51;10.10;65.90
16347;DHT22;8283;48.504;13.734;2022-12-05T19:30:35;10.10;65.90
16347;DHT22;8283;48.504;13.734;2022-12-05T19:33:20;10.10;65.90
16347;DHT22;8283;48.504;13.734;2022-12-05T19:36:09;10.10;66.00
16347;DHT22;8283;48.504;13.734;2022-12-05T19:38:55;10.10;66.30
16347;DHT22;8283;48.504;13.734;2022-12-05T19:41:39;10.10;66.00
16347;DHT22;8283;48.504;13.734;2022-12-05T19:44:25;10.10;66.00
16347;DHT22;8283;48.504;13.734;2022-12-05T19:47:09;10.10;66.00
16347;DHT22;8283;48.504;13.734;2022-12-05T19:49:54;10.10;66.00
16347;DHT22;8283;48.504;13.734;2022-12-05T19:52:39;10.10;65.90
16347;DHT22;8283;48.504;13.734;2022-12-05T19:55:23;10.20;66.00
16347;DHT22;8283;48.504;13.734;2022-12-05T19:58:08;10.10;65.90
16347;DHT22;8283;48.504;13.734;2022-12-05T20:00:52;10.20;66.00
16347;DHT22;8283;48.504;13.734;2022-12-05T20:03:37;10.20;65.90
16347;DHT22;8283;48.504;13.734;2022-12-05T20:06:22;10.20;66.00
16347;DHT22;8283;48.504;13.734;2022-12-05T20:09:08;10.20;65.90
16347;DHT22;8283;48.504;13.734;2022-12-05T20:11:53;10.20;66.00
16347;DHT22;8283;48.504;13.734;2022-12-05T20:14:37;10.20;66.00
16347;DHT22;8283;48.504;13.734;2022-12-05T20:17:21;10.20;66.00
16347;DHT22;8283;48.504;13.734;2022-12-05T20:20:06;10.20;66.00
16347;DHT22;8283;48.504;13.734;2022-12-05T20:22:52;10.20;66.00
16347;DHT22;8283;48.504;13.734;2022-12-05T20:25:36;10.20;66.10
16347;DHT22;8283;48.504;13.734;2022-12-05T20:28:21;10.20;66.10
16347;DHT22;8283;48.504;13.734;2022-12-05T20:31:07;10.20;66.80
16347;DHT22;8283;48.504;13.734;2022-12-05T20:33:53;10.20;66.10
16347;DHT22;8283;48.504;13.734;2022-12-05T20:36:38;10.20;66.10
16347;DHT22;8283;48.504;13.734;2022-12-05T20:39:22;10.20;65.90
16347;DHT22;8283;48.504;13.734;2022-12-05T20:42:08;10.20;65.80
16347;DHT22;8283;48.504;13.734;2022-12-05T20:44:52;10.20;65.70
16347;DHT22;8283;48.504;13.734;2022-12-05T20:47:37;10.20;65.60
16347;DHT22;8283;48.504;13.734;2022-12-05T20:50:21;10.10;65.40
16347;DHT22;8283;48.504;13.734;2022-12-05T20:53:05;10.10;65.40
16347;DHT22;8283;48.504;13.734;2022-12-05T20:55:49;10.10;65.40
16347;DHT22;8283;48.504;13.734;2022-12-05T20:58:34;10.00;65.30
16347;DHT22;8283;48.504;13.734;2022-12-05T21:01:20;10.00;65.30
16347;DHT22;8283;48.504;13.734;2022-12-05T21:04:06;10.00;65.30
16347;DHT22;8283;48.504;13.734;2022-12-05T21:06:50;9.90;65.40
16347;DHT22;8283;48.504;13.734;2022-12-05T21:09:34;9.90;65.40
16347;DHT22;8283;48.504;13.734;2022-12-05T21:12:19;9.80;65.40
16347;DHT22;8283;48.504;13.734;2022-12-05T21:15:04;9.80;65.60
16347;DHT22;8283;48.504;13.734;2022-12-05T21:17:48;9.80;65.60
16347;DHT22;8283;48.504;13.734;2022-12-05T21:20:32;9.80;65.40
16347;DHT22;8283;48.504;13.734;2022-12-05T21:23:17;9.80;65.40
16347;DHT22;8283;48.504;13.734;2022-12-05T21:26:06;9.70;65.30
16347;DHT22;8283;48.504;13.734;2022-12-05T21:28:51;9.70;65.30
16347;DHT22;8283;48.504;13.734;2022-12-05T21:31:39;9.70;65.10
16347;DHT22;8283;48.504;13.734;2022-12-05T21:34:24;9.70;65.00
16347;DHT22;8283;48.504;13.734;2022-12-05T21:37:09;9.60;64.80
16347;DHT22;8283;48.504;13.734;2022-12-05T21:39:54;9.50;64.70
16347;DHT22;8283;48.504;13.734;2022-12-05T21:42:39;9.50;64.70
16347;DHT22;8283;48.504;13.734;2022-12-05T21:45:23;9.40;64.60
16347;DHT22;8283;48.504;13.734;2022-12-05T21:48:07;9.40;64.60
16347;DHT22;8283;48.504;13.734;2022-12-05T21:50:52;9.30;64.70
16347;DHT22;8283;48.504;13.734;2022-12-05T21:53:36;9.20;64.30
16347;DHT22;8283;48.504;13.734;2022-12-05T21:56:22;9.20;64.30
16347;DHT22;8283;48.504;13.734;2022-12-05T21:59:06;9.10;64.60
16347;DHT22;8283;48.504;13.734;2022-12-05T22:01:50;9.00;64.50
16347;DHT22;8283;48.504;13.734;2022-12-05T22:04:35;8.90;64.60
16347;DHT22;8283;48.504;13.734;2022-12-05T22:07:19;8.80;64.50
16347;DHT22;8283;48.504;13.734;2022-12-05T22:10:04;8.70;64.60
16347;DHT22;8283;48.504;13.734;2022-12-05T22:12:48;8.70;64.70
16347;DHT22;8283;48.504;13.734;2022-12-05T22:15:32;8.60;65.00
16347;DHT22;8283;48.504;13.734;2022-12-05T22:18:17;8.60;64.90
16347;DHT22;8283;48.504;13.734;2022-12-05T22:21:03;8.50;65.00
16347;DHT22;8283;48.504;13.734;2022-12-05T22:23:48;8.50;65.20
16347;DHT22;8283;48.504;13.734;2022-12-05T22:26:33;8.40;65.50
16347;DHT22;8283;48.504;13.734;2022-12-05T22:29:17;8.40;65.40
16347;DHT22;8283;48.504;13.734;2022-12-05T22:32:01;8.30;65.50
16347;DHT22;8283;48.504;13.734;2022-12-05T22:34:46;8.30;65.20
16347;DHT22;8283;48.504;13.734;2022-12-05T22:37:30;8.30;65.20
16347;DHT22;8283;48.504;13.734;2022-12-05T22:40:14;8.30;65.30
16347;DHT22;8283;48.504;13.734;2022-12-05T22:42:59;8.20;65.20
16347;DHT22;8283;48.504;13.734;2022-12-05T22:45:44;8.20;65.20
16347;DHT22;8283;48.504;13.734;2022-12-05T22:48:28;8.20;65.20
16347;DHT22;8283;48.504;13.734;2022-12-05T22:51:12;8.20;65.20
16347;DHT22;8283;48.504;13.734;2022-12-05T22:53:57;8.20;65.20
16347;DHT22;8283;48.504;13.734;2022-12-05T22:56:42;8.20;65.30
16347;DHT22;8283;48.504;13.734;2022-12-05T22:59:27;8.30;65.30
16347;DHT22;8283;48.504;13.734;2022-12-05T23:02:11;8.20;65.20
16347;DHT22;8283;48.504;13.734;2022-12-05T23:04:55;8.30;65.20
16347;DHT22;8283;48.504;13.734;2022-12-05T23:07:39;8.30;65.20
16347;DHT22;8283;48.504;13.734;2022-12-05T23:10:24;8.30;65.20
16347;DHT22;8283;48.504;13.734;2022-12-05T23:13:09;8.20;65.10
16347;DHT22;8283;48.504;13.734;2022-12-05T23:15:53;8.20;65.10
16347;DHT22;8283;48.504;13.734;2022-12-05T23:18:38;8.20;65.10
16347;DHT22;8283;48.504;13.734;2022-12-05T23:21:36;8.20;65.10
16347;DHT22;8283;48.504;13.734;2022-12-05T23:24:21;8.20;65.20
16347;DHT22;8283;48.504;13.734;2022-12-05T23:27:06;8.20;65.00
16347;DHT22;8283;48.504;13.734;2022-12-05T23:29:50;8.20;65.10
16347;DHT22;8283;48.504;13.734;2022-12-05T23:32:34;8.20;65.00
16347;DHT22;8283;48.504;13.734;2022-12-05T23:35:18;8.10;65.00
16347;DHT22;8283;48.504;13.734;2022-12-05T23:38:02;8.10;65.10
16347;DHT22;8283;48.504;13.734;2022-12-05T23:43:45;8.10;65.70